Airmont, New York
Current Conditions -  °F | °C
As of 12:51 AM on Wednesday 26 Nov 2014 (Local Time) from KTEB Reporting Station
Clear Clear  
Wind Chill: 47°   Ceiling: Unl
Heat Index: 49°   Visibility: 10mi
Dew Point: 29°   Wind: 5mph
Humidity: 46%   Direction: 240°WSW
Pressure: 30.15"   Gusts: NA
Location:  41.1112°N, 74.0777°W
Report Text: KTEB 260551Z 24004KT 10SM CLR 09/M02 A3015 RMK AO2 SLP208 T00941017 10122 20083 50007
Loading
Personal Weather Stations






























Interactive Weather Map New forecast layout! Learn more

10-Day Weather Forecast

Advertisements
Track Severe Weather on mobile